sensor_id;sensor_type;location;lat;lon;timestamp;P1;durP1;ratioP1;P2;durP2;ratioP2
65996;SDS011;52765;52.258;21.052;2023-02-12T00:00:03;5.97;;;1.50;;
65996;SDS011;52765;52.258;21.052;2023-02-12T00:02:33;5.93;;;2.38;;
65996;SDS011;52765;52.258;21.052;2023-02-12T00:04:58;4.18;;;1.30;;
65996;SDS011;52765;52.258;21.052;2023-02-12T00:07:24;28.48;;;7.40;;
65996;SDS011;52765;52.258;21.052;2023-02-12T00:09:49;20.05;;;5.38;;
65996;SDS011;52765;52.258;21.052;2023-02-12T00:12:15;60.72;;;14.00;;
65996;SDS011;52765;52.258;21.052;2023-02-12T00:14:40;16.77;;;4.88;;
65996;SDS011;52765;52.258;21.052;2023-02-12T00:17:06;6.57;;;1.90;;
65996;SDS011;52765;52.258;21.052;2023-02-12T00:19:31;4.88;;;1.23;;
65996;SDS011;52765;52.258;21.052;2023-02-12T00:21:57;4.95;;;1.17;;
65996;SDS011;52765;52.258;21.052;2023-02-12T00:24:22;1.25;;;1.00;;
65996;SDS011;52765;52.258;21.052;2023-02-12T00:26:47;19.25;;;5.15;;
65996;SDS011;52765;52.258;21.052;2023-02-12T00:29:15;15.48;;;3.50;;
65996;SDS011;52765;52.258;21.052;2023-02-12T00:31:40;3.38;;;1.13;;
65996;SDS011;52765;52.258;21.052;2023-02-12T00:34:06;9.43;;;2.30;;
65996;SDS011;52765;52.258;21.052;2023-02-12T00:36:31;3.97;;;1.52;;
65996;SDS011;52765;52.258;21.052;2023-02-12T00:38:57;3.13;;;1.13;;
65996;SDS011;52765;52.258;21.052;2023-02-12T00:41:25;4.75;;;1.20;;
65996;SDS011;52765;52.258;21.052;2023-02-12T00:43:52;4.25;;;1.20;;
65996;SDS011;52765;52.258;21.052;2023-02-12T00:46:20;9.63;;;2.55;;
65996;SDS011;52765;52.258;21.052;2023-02-12T00:48:45;50.10;;;12.55;;
65996;SDS011;52765;52.258;21.052;2023-02-12T00:51:11;22.23;;;5.68;;
65996;SDS011;52765;52.258;21.052;2023-02-12T00:53:36;34.25;;;8.10;;
65996;SDS011;52765;52.258;21.052;2023-02-12T00:56:02;22.30;;;5.38;;
65996;SDS011;52765;52.258;21.052;2023-02-12T00:58:28;7.15;;;2.05;;
65996;SDS011;52765;52.258;21.052;2023-02-12T01:00:53;4.55;;;0.95;;
65996;SDS011;52765;52.258;21.052;2023-02-12T01:03:19;12.65;;;3.80;;
65996;SDS011;52765;52.258;21.052;2023-02-12T01:05:45;27.65;;;6.75;;
65996;SDS011;52765;52.258;21.052;2023-02-12T01:08:11;36.80;;;8.95;;
65996;SDS011;52765;52.258;21.052;2023-02-12T01:10:37;49.05;;;12.40;;
65996;SDS011;52765;52.258;21.052;2023-02-12T01:13:03;21.60;;;5.38;;
65996;SDS011;52765;52.258;21.052;2023-02-12T01:15:28;3.72;;;1.30;;
65996;SDS011;52765;52.258;21.052;2023-02-12T01:17:54;4.55;;;1.20;;
65996;SDS011;52765;52.258;21.052;2023-02-12T01:20:20;4.25;;;1.20;;
65996;SDS011;52765;52.258;21.052;2023-02-12T01:22:47;9.85;;;2.40;;
65996;SDS011;52765;52.258;21.052;2023-02-12T01:25:13;19.27;;;4.63;;
65996;SDS011;52765;52.258;21.052;2023-02-12T01:27:38;12.90;;;3.30;;
65996;SDS011;52765;52.258;21.052;2023-02-12T01:30:04;48.08;;;12.75;;
65996;SDS011;52765;52.258;21.052;2023-02-12T01:32:32;11.45;;;3.50;;
65996;SDS011;52765;52.258;21.052;2023-02-12T01:34:58;4.38;;;1.30;;
65996;SDS011;52765;52.258;21.052;2023-02-12T01:37:24;1.52;;;0.93;;
65996;SDS011;52765;52.258;21.052;2023-02-12T01:39:49;1.48;;;0.80;;
65996;SDS011;52765;52.258;21.052;2023-02-12T01:42:15;2.53;;;0.77;;
65996;SDS011;52765;52.258;21.052;2023-02-12T01:47:54;11.52;;;2.17;;
65996;SDS011;52765;52.258;21.052;2023-02-12T01:50:20;34.03;;;6.65;;
65996;SDS011;52765;52.258;21.052;2023-02-12T01:52:47;37.03;;;6.22;;
65996;SDS011;52765;52.258;21.052;2023-02-12T01:55:18;26.35;;;6.47;;
65996;SDS011;52765;52.258;21.052;2023-02-12T01:57:45;43.80;;;8.40;;
65996;SDS011;52765;52.258;21.052;2023-02-12T02:00:13;36.85;;;6.60;;
65996;SDS011;52765;52.258;21.052;2023-02-12T02:02:44;27.25;;;5.80;;
65996;SDS011;52765;52.258;21.052;2023-02-12T02:05:14;14.00;;;2.63;;
65996;SDS011;52765;52.258;21.052;2023-02-12T02:07:44;7.72;;;1.65;;
65996;SDS011;52765;52.258;21.052;2023-02-12T02:10:10;13.35;;;2.65;;
65996;SDS011;52765;52.258;21.052;2023-02-12T02:12:36;5.18;;;1.27;;
65996;SDS011;52765;52.258;21.052;2023-02-12T02:26:42;8.85;;;1.80;;
65996;SDS011;52765;52.258;21.052;2023-02-12T02:31:46;8.68;;;1.48;;
65996;SDS011;52765;52.258;21.052;2023-02-12T02:34:10;23.90;;;5.63;;
65996;SDS011;52765;52.258;21.052;2023-02-12T02:37:17;49.97;;;9.57;;
65996;SDS011;52765;52.258;21.052;2023-02-12T02:39:49;14.25;;;3.15;;
65996;SDS011;52765;52.258;21.052;2023-02-12T02:45:32;9.18;;;2.55;;
65996;SDS011;52765;52.258;21.052;2023-02-12T02:50:26;18.42;;;3.90;;
65996;SDS011;52765;52.258;21.052;2023-02-12T02:53:06;23.80;;;6.05;;
65996;SDS011;52765;52.258;21.052;2023-02-12T02:55:55;28.80;;;5.85;;
65996;SDS011;52765;52.258;21.052;2023-02-12T02:58:29;29.10;;;6.50;;
65996;SDS011;52765;52.258;21.052;2023-02-12T03:01:01;6.75;;;1.50;;
65996;SDS011;52765;52.258;21.052;2023-02-12T03:06:29;1.80;;;0.50;;
65996;SDS011;52765;52.258;21.052;2023-02-12T03:09:01;3.15;;;1.00;;
65996;SDS011;52765;52.258;21.052;2023-02-12T03:11:34;2.05;;;0.80;;
65996;SDS011;52765;52.258;21.052;2023-02-12T03:16:35;1.83;;;0.70;;
65996;SDS011;52765;52.258;21.052;2023-02-12T03:19:15;1.15;;;0.80;;
65996;SDS011;52765;52.258;21.052;2023-02-12T03:24:15;0.77;;;0.60;;
65996;SDS011;52765;52.258;21.052;2023-02-12T03:29:40;2.72;;;0.77;;
65996;SDS011;52765;52.258;21.052;2023-02-12T03:37:40;2.15;;;0.85;;
65996;SDS011;52765;52.258;21.052;2023-02-12T03:40:17;2.38;;;0.90;;
65996;SDS011;52765;52.258;21.052;2023-02-12T03:47:58;4.13;;;1.10;;
65996;SDS011;52765;52.258;21.052;2023-02-12T03:53:33;8.57;;;2.75;;
65996;SDS011;52765;52.258;21.052;2023-02-12T03:56:01;5.30;;;2.13;;
65996;SDS011;52765;52.258;21.052;2023-02-12T03:58:31;7.68;;;2.20;;
65996;SDS011;52765;52.258;21.052;2023-02-12T04:00:59;7.20;;;2.03;;
65996;SDS011;52765;52.258;21.052;2023-02-12T04:03:25;2.38;;;0.68;;
65996;SDS011;52765;52.258;21.052;2023-02-12T04:05:52;3.63;;;0.95;;
65996;SDS011;52765;52.258;21.052;2023-02-12T04:08:17;2.75;;;0.90;;
65996;SDS011;52765;52.258;21.052;2023-02-12T04:13:23;0.98;;;0.60;;
65996;SDS011;52765;52.258;21.052;2023-02-12T04:29:54;3.33;;;1.60;;
65996;SDS011;52765;52.258;21.052;2023-02-12T04:32:43;2.13;;;1.33;;
65996;SDS011;52765;52.258;21.052;2023-02-12T04:38:09;2.40;;;1.00;;
65996;SDS011;52765;52.258;21.052;2023-02-12T04:40:41;4.15;;;1.70;;
65996;SDS011;52765;52.258;21.052;2023-02-12T04:43:08;2.70;;;1.10;;
65996;SDS011;52765;52.258;21.052;2023-02-12T04:45:34;1.17;;;0.73;;
65996;SDS011;52765;52.258;21.052;2023-02-12T04:48:01;1.80;;;0.95;;
65996;SDS011;52765;52.258;21.052;2023-02-12T04:50:29;1.90;;;1.10;;
65996;SDS011;52765;52.258;21.052;2023-02-12T04:53:05;1.48;;;0.77;;
65996;SDS011;52765;52.258;21.052;2023-02-12T04:55:31;3.35;;;1.30;;
65996;SDS011;52765;52.258;21.052;2023-02-12T04:57:57;1.35;;;1.02;;
65996;SDS011;52765;52.258;21.052;2023-02-12T05:00:22;1.88;;;1.15;;
65996;SDS011;52765;52.258;21.052;2023-02-12T05:02:48;4.35;;;1.75;;
65996;SDS011;52765;52.258;21.052;2023-02-12T05:05:13;1.70;;;1.15;;
65996;SDS011;52765;52.258;21.052;2023-02-12T05:07:39;1.67;;;1.20;;
65996;SDS011;52765;52.258;21.052;2023-02-12T05:10:04;2.38;;;1.08;;
65996;SDS011;52765;52.258;21.052;2023-02-12T05:12:30;2.40;;;1.10;;
65996;SDS011;52765;52.258;21.052;2023-02-12T05:14:56;2.15;;;1.15;;
65996;SDS011;52765;52.258;21.052;2023-02-12T05:17:22;4.68;;;1.33;;
65996;SDS011;52765;52.258;21.052;2023-02-12T05:19:51;3.20;;;1.20;;
65996;SDS011;52765;52.258;21.052;2023-02-12T05:22:17;1.55;;;0.93;;
65996;SDS011;52765;52.258;21.052;2023-02-12T05:24:42;1.92;;;1.00;;
65996;SDS011;52765;52.258;21.052;2023-02-12T05:27:08;2.28;;;0.70;;
65996;SDS011;52765;52.258;21.052;2023-02-12T05:29:34;1.83;;;0.90;;
65996;SDS011;52765;52.258;21.052;2023-02-12T05:32:00;3.17;;;0.80;;
65996;SDS011;52765;52.258;21.052;2023-02-12T05:34:25;2.15;;;1.00;;
65996;SDS011;52765;52.258;21.052;2023-02-12T05:36:51;1.58;;;0.80;;
65996;SDS011;52765;52.258;21.052;2023-02-12T05:39:16;2.45;;;0.77;;
65996;SDS011;52765;52.258;21.052;2023-02-12T05:41:42;1.90;;;0.90;;
65996;SDS011;52765;52.258;21.052;2023-02-12T05:44:08;2.45;;;0.88;;
65996;SDS011;52765;52.258;21.052;2023-02-12T05:46:36;1.45;;;0.80;;
65996;SDS011;52765;52.258;21.052;2023-02-12T05:49:02;4.78;;;1.27;;
65996;SDS011;52765;52.258;21.052;2023-02-12T05:51:28;2.92;;;0.90;;
65996;SDS011;52765;52.258;21.052;2023-02-12T05:53:56;3.47;;;1.00;;
65996;SDS011;52765;52.258;21.052;2023-02-12T05:56:28;1.80;;;0.80;;
65996;SDS011;52765;52.258;21.052;2023-02-12T05:59:10;2.63;;;1.02;;
65996;SDS011;52765;52.258;21.052;2023-02-12T06:01:39;1.70;;;0.95;;
65996;SDS011;52765;52.258;21.052;2023-02-12T06:04:07;1.70;;;1.10;;
65996;SDS011;52765;52.258;21.052;2023-02-12T06:06:37;1.13;;;0.90;;
65996;SDS011;52765;52.258;21.052;2023-02-12T06:09:06;1.90;;;1.02;;
65996;SDS011;52765;52.258;21.052;2023-02-12T06:11:32;1.48;;;0.80;;
65996;SDS011;52765;52.258;21.052;2023-02-12T06:14:00;3.80;;;1.10;;
65996;SDS011;52765;52.258;21.052;2023-02-12T06:16:27;1.00;;;0.75;;
65996;SDS011;52765;52.258;21.052;2023-02-12T06:18:53;1.25;;;0.88;;
65996;SDS011;52765;52.258;21.052;2023-02-12T06:21:21;2.05;;;0.90;;
65996;SDS011;52765;52.258;21.052;2023-02-12T06:23:48;1.65;;;0.70;;
65996;SDS011;52765;52.258;21.052;2023-02-12T06:26:14;1.13;;;0.85;;
65996;SDS011;52765;52.258;21.052;2023-02-12T06:28:40;2.22;;;1.33;;
65996;SDS011;52765;52.258;21.052;2023-02-12T06:31:16;2.00;;;1.20;;
65996;SDS011;52765;52.258;21.052;2023-02-12T06:33:43;5.05;;;1.30;;
65996;SDS011;52765;52.258;21.052;2023-02-12T06:36:08;2.30;;;1.52;;
65996;SDS011;52765;52.258;21.052;2023-02-12T06:38:34;3.83;;;1.20;;
65996;SDS011;52765;52.258;21.052;2023-02-12T06:41:03;1.83;;;1.10;;
65996;SDS011;52765;52.258;21.052;2023-02-12T06:43:28;1.75;;;1.08;;
65996;SDS011;52765;52.258;21.052;2023-02-12T06:45:54;1.33;;;1.08;;
65996;SDS011;52765;52.258;21.052;2023-02-12T06:48:19;2.90;;;1.10;;
65996;SDS011;52765;52.258;21.052;2023-02-12T06:50:45;4.28;;;0.90;;
65996;SDS011;52765;52.258;21.052;2023-02-12T06:53:10;3.40;;;1.40;;
65996;SDS011;52765;52.258;21.052;2023-02-12T06:55:36;2.47;;;1.10;;
65996;SDS011;52765;52.258;21.052;2023-02-12T06:58:03;2.58;;;1.10;;
65996;SDS011;52765;52.258;21.052;2023-02-12T07:00:28;2.13;;;1.13;;
65996;SDS011;52765;52.258;21.052;2023-02-12T07:02:54;2.55;;;1.10;;
65996;SDS011;52765;52.258;21.052;2023-02-12T07:05:20;1.25;;;0.80;;
65996;SDS011;52765;52.258;21.052;2023-02-12T07:07:47;2.85;;;1.15;;
65996;SDS011;52765;52.258;21.052;2023-02-12T07:10:12;2.10;;;1.10;;
65996;SDS011;52765;52.258;21.052;2023-02-12T07:12:38;2.42;;;1.10;;
65996;SDS011;52765;52.258;21.052;2023-02-12T07:15:03;1.48;;;1.00;;
65996;SDS011;52765;52.258;21.052;2023-02-12T07:17:29;1.30;;;1.10;;
65996;SDS011;52765;52.258;21.052;2023-02-12T07:19:54;3.47;;;1.27;;
65996;SDS011;52765;52.258;21.052;2023-02-12T07:22:20;1.70;;;0.90;;
65996;SDS011;52765;52.258;21.052;2023-02-12T07:24:46;1.42;;;1.15;;
65996;SDS011;52765;52.258;21.052;2023-02-12T07:27:12;3.47;;;1.40;;
65996;SDS011;52765;52.258;21.052;2023-02-12T07:29:38;1.30;;;0.93;;
65996;SDS011;52765;52.258;21.052;2023-02-12T07:32:03;3.20;;;1.48;;
65996;SDS011;52765;52.258;21.052;2023-02-12T07:34:29;3.00;;;1.02;;
65996;SDS011;52765;52.258;21.052;2023-02-12T07:36:55;5.93;;;2.38;;
65996;SDS011;52765;52.258;21.052;2023-02-12T07:39:20;3.78;;;1.50;;
65996;SDS011;52765;52.258;21.052;2023-02-12T07:41:46;2.85;;;1.27;;
65996;SDS011;52765;52.258;21.052;2023-02-12T07:44:11;1.35;;;1.10;;
65996;SDS011;52765;52.258;21.052;2023-02-12T07:49:05;1.95;;;0.75;;
65996;SDS011;52765;52.258;21.052;2023-02-12T07:51:31;1.67;;;0.90;;
65996;SDS011;52765;52.258;21.052;2023-02-12T07:53:58;2.83;;;1.05;;
65996;SDS011;52765;52.258;21.052;2023-02-12T07:56:25;2.47;;;0.88;;
65996;SDS011;52765;52.258;21.052;2023-02-12T07:58:57;1.50;;;1.10;;
65996;SDS011;52765;52.258;21.052;2023-02-12T08:01:34;2.15;;;1.05;;
65996;SDS011;52765;52.258;21.052;2023-02-12T08:04:02;1.58;;;1.13;;
65996;SDS011;52765;52.258;21.052;2023-02-12T08:06:30;2.90;;;1.30;;
65996;SDS011;52765;52.258;21.052;2023-02-12T08:08:59;2.58;;;1.20;;
65996;SDS011;52765;52.258;21.052;2023-02-12T08:11:27;3.00;;;1.30;;
65996;SDS011;52765;52.258;21.052;2023-02-12T08:13:54;3.42;;;1.40;;
65996;SDS011;52765;52.258;21.052;2023-02-12T08:16:21;2.70;;;1.40;;
65996;SDS011;52765;52.258;21.052;2023-02-12T08:18:48;1.75;;;1.27;;
65996;SDS011;52765;52.258;21.052;2023-02-12T08:21:18;2.10;;;1.20;;
65996;SDS011;52765;52.258;21.052;2023-02-12T08:23:45;1.85;;;1.00;;
65996;SDS011;52765;52.258;21.052;2023-02-12T08:29:03;4.53;;;1.27;;
65996;SDS011;52765;52.258;21.052;2023-02-12T08:31:35;1.15;;;1.05;;
65996;SDS011;52765;52.258;21.052;2023-02-12T08:34:02;1.45;;;1.17;;
65996;SDS011;52765;52.258;21.052;2023-02-12T08:36:30;1.75;;;1.15;;
65996;SDS011;52765;52.258;21.052;2023-02-12T08:39:04;2.13;;;1.17;;
65996;SDS011;52765;52.258;21.052;2023-02-12T08:41:30;2.85;;;1.20;;
65996;SDS011;52765;52.258;21.052;2023-02-12T08:44:00;2.42;;;1.30;;
65996;SDS011;52765;52.258;21.052;2023-02-12T08:46:33;1.73;;;1.10;;
65996;SDS011;52765;52.258;21.052;2023-02-12T08:49:01;2.33;;;1.45;;
65996;SDS011;52765;52.258;21.052;2023-02-12T08:51:30;1.98;;;1.13;;
65996;SDS011;52765;52.258;21.052;2023-02-12T08:53:58;1.73;;;1.10;;
65996;SDS011;52765;52.258;21.052;2023-02-12T08:56:25;1.27;;;1.08;;
65996;SDS011;52765;52.258;21.052;2023-02-12T08:58:53;2.70;;;1.45;;
65996;SDS011;52765;52.258;21.052;2023-02-12T09:01:27;2.97;;;1.10;;
65996;SDS011;52765;52.258;21.052;2023-02-12T09:03:54;2.95;;;1.20;;
65996;SDS011;52765;52.258;21.052;2023-02-12T09:06:21;2.95;;;1.58;;
65996;SDS011;52765;52.258;21.052;2023-02-12T09:08:48;2.88;;;1.20;;
65996;SDS011;52765;52.258;21.052;2023-02-12T09:11:22;2.92;;;1.45;;
65996;SDS011;52765;52.258;21.052;2023-02-12T09:13:54;5.43;;;1.40;;
65996;SDS011;52765;52.258;21.052;2023-02-12T09:16:22;2.08;;;1.58;;
65996;SDS011;52765;52.258;21.052;2023-02-12T09:18:47;2.13;;;1.48;;
65996;SDS011;52765;52.258;21.052;2023-02-12T09:21:16;2.58;;;1.30;;
65996;SDS011;52765;52.258;21.052;2023-02-12T09:23:44;5.05;;;2.50;;
65996;SDS011;52765;52.258;21.052;2023-02-12T09:26:11;2.83;;;1.88;;
65996;SDS011;52765;52.258;21.052;2023-02-12T09:28:41;4.22;;;1.67;;
65996;SDS011;52765;52.258;21.052;2023-02-12T09:31:11;2.53;;;1.80;;
65996;SDS011;52765;52.258;21.052;2023-02-12T09:33:38;3.75;;;2.22;;
65996;SDS011;52765;52.258;21.052;2023-02-12T09:36:07;4.35;;;2.85;;
65996;SDS011;52765;52.258;21.052;2023-02-12T09:38:35;8.07;;;3.38;;
65996;SDS011;52765;52.258;21.052;2023-02-12T09:41:06;5.95;;;2.67;;
65996;SDS011;52765;52.258;21.052;2023-02-12T09:44:08;3.30;;;2.38;;
65996;SDS011;52765;52.258;21.052;2023-02-12T09:46:46;4.50;;;2.65;;
65996;SDS011;52765;52.258;21.052;2023-02-12T09:52:12;4.25;;;2.50;;
65996;SDS011;52765;52.258;21.052;2023-02-12T09:54:41;4.35;;;3.13;;
65996;SDS011;52765;52.258;21.052;2023-02-12T09:57:14;5.55;;;3.80;;
65996;SDS011;52765;52.258;21.052;2023-02-12T10:00:07;4.25;;;3.25;;
65996;SDS011;52765;52.258;21.052;2023-02-12T10:02:35;4.70;;;3.50;;
65996;SDS011;52765;52.258;21.052;2023-02-12T10:05:03;4.28;;;3.10;;
65996;SDS011;52765;52.258;21.052;2023-02-12T10:13:13;5.55;;;3.55;;
65996;SDS011;52765;52.258;21.052;2023-02-12T10:15:54;3.80;;;2.88;;
65996;SDS011;52765;52.258;21.052;2023-02-12T10:21:26;6.82;;;3.63;;
65996;SDS011;52765;52.258;21.052;2023-02-12T10:26:52;5.22;;;3.15;;
65996;SDS011;52765;52.258;21.052;2023-02-12T10:29:26;6.47;;;3.03;;
65996;SDS011;52765;52.258;21.052;2023-02-12T10:31:57;8.50;;;3.38;;
65996;SDS011;52765;52.258;21.052;2023-02-12T10:34:30;5.00;;;3.47;;
65996;SDS011;52765;52.258;21.052;2023-02-12T10:37:01;6.97;;;3.70;;
65996;SDS011;52765;52.258;21.052;2023-02-12T10:39:36;4.25;;;2.95;;
65996;SDS011;52765;52.258;21.052;2023-02-12T10:42:11;4.38;;;2.72;;
65996;SDS011;52765;52.258;21.052;2023-02-12T10:44:43;3.78;;;2.53;;
65996;SDS011;52765;52.258;21.052;2023-02-12T10:47:14;4.15;;;2.40;;
65996;SDS011;52765;52.258;21.052;2023-02-12T10:50:51;5.28;;;2.75;;
65996;SDS011;52765;52.258;21.052;2023-02-12T10:52:57;6.03;;;2.45;;
65996;SDS011;52765;52.258;21.052;2023-02-12T10:55:31;4.22;;;2.50;;
65996;SDS011;52765;52.258;21.052;2023-02-12T10:57:59;4.22;;;2.47;;
65996;SDS011;52765;52.258;21.052;2023-02-12T11:00:35;5.93;;;2.88;;
65996;SDS011;52765;52.258;21.052;2023-02-12T11:03:04;4.70;;;2.70;;
65996;SDS011;52765;52.258;21.052;2023-02-12T11:05:45;2.95;;;2.20;;
65996;SDS011;52765;52.258;21.052;2023-02-12T11:13:36;4.85;;;2.80;;
65996;SDS011;52765;52.258;21.052;2023-02-12T11:16:07;5.28;;;3.20;;
65996;SDS011;52765;52.258;21.052;2023-02-12T11:18:35;6.40;;;3.75;;
65996;SDS011;52765;52.258;21.052;2023-02-12T11:23:30;7.65;;;2.92;;
65996;SDS011;52765;52.258;21.052;2023-02-12T11:28:56;3.60;;;2.70;;
65996;SDS011;52765;52.258;21.052;2023-02-12T11:31:33;4.93;;;3.20;;
65996;SDS011;52765;52.258;21.052;2023-02-12T11:34:06;7.32;;;3.58;;
65996;SDS011;52765;52.258;21.052;2023-02-12T11:36:45;7.35;;;4.00;;
65996;SDS011;52765;52.258;21.052;2023-02-12T11:42:02;8.15;;;3.17;;
65996;SDS011;52765;52.258;21.052;2023-02-12T11:44:38;5.45;;;3.83;;
65996;SDS011;52765;52.258;21.052;2023-02-12T11:47:22;9.65;;;4.05;;
65996;SDS011;52765;52.258;21.052;2023-02-12T11:52:24;8.85;;;4.43;;
65996;SDS011;52765;52.258;21.052;2023-02-12T11:54:54;7.65;;;3.83;;
65996;SDS011;52765;52.258;21.052;2023-02-12T11:57:38;10.18;;;4.57;;
65996;SDS011;52765;52.258;21.052;2023-02-12T12:00:13;8.93;;;4.68;;
65996;SDS011;52765;52.258;21.052;2023-02-12T12:03:12;4.97;;;3.22;;
65996;SDS011;52765;52.258;21.052;2023-02-12T12:05:53;6.45;;;3.90;;
65996;SDS011;52765;52.258;21.052;2023-02-12T12:08:26;10.10;;;3.70;;
65996;SDS011;52765;52.258;21.052;2023-02-12T12:20:05;7.15;;;4.40;;
65996;SDS011;52765;52.258;21.052;2023-02-12T12:23:05;4.75;;;3.50;;
65996;SDS011;52765;52.258;21.052;2023-02-12T12:25:49;7.32;;;3.85;;
65996;SDS011;52765;52.258;21.052;2023-02-12T12:28:38;7.53;;;3.60;;
65996;SDS011;52765;52.258;21.052;2023-02-12T12:31:14;11.38;;;4.07;;
65996;SDS011;52765;52.258;21.052;2023-02-12T12:33:49;5.57;;;3.53;;
65996;SDS011;52765;52.258;21.052;2023-02-12T12:42:18;5.38;;;3.10;;
65996;SDS011;52765;52.258;21.052;2023-02-12T13:00:28;6.82;;;3.20;;
65996;SDS011;52765;52.258;21.052;2023-02-12T13:03:12;8.25;;;3.50;;
65996;SDS011;52765;52.258;21.052;2023-02-12T13:11:38;7.47;;;3.67;;
65996;SDS011;52765;52.258;21.052;2023-02-12T13:14:25;6.45;;;3.55;;
65996;SDS011;52765;52.258;21.052;2023-02-12T13:20:05;8.13;;;4.10;;
65996;SDS011;52765;52.258;21.052;2023-02-12T13:22:58;10.90;;;5.22;;
65996;SDS011;52765;52.258;21.052;2023-02-12T13:28:29;7.20;;;4.10;;
65996;SDS011;52765;52.258;21.052;2023-02-12T13:31:00;6.60;;;4.22;;
65996;SDS011;52765;52.258;21.052;2023-02-12T13:33:50;6.57;;;3.67;;
65996;SDS011;52765;52.258;21.052;2023-02-12T13:36:16;6.22;;;3.85;;
65996;SDS011;52765;52.258;21.052;2023-02-12T13:38:44;8.10;;;4.25;;
65996;SDS011;52765;52.258;21.052;2023-02-12T13:41:22;6.95;;;3.60;;
65996;SDS011;52765;52.258;21.052;2023-02-12T13:47:36;10.30;;;4.35;;
65996;SDS011;52765;52.258;21.052;2023-02-12T13:57:35;9.25;;;4.30;;
65996;SDS011;52765;52.258;21.052;2023-02-12T14:00:01;8.88;;;4.32;;
65996;SDS011;52765;52.258;21.052;2023-02-12T14:04:59;7.75;;;4.20;;
65996;SDS011;52765;52.258;21.052;2023-02-12T14:10:39;8.73;;;4.22;;
65996;SDS011;52765;52.258;21.052;2023-02-12T14:15:48;9.73;;;4.63;;
65996;SDS011;52765;52.258;21.052;2023-02-12T14:23:53;10.13;;;5.45;;
65996;SDS011;52765;52.258;21.052;2023-02-12T14:26:20;10.02;;;4.32;;
65996;SDS011;52765;52.258;21.052;2023-02-12T14:29:03;10.18;;;5.32;;
65996;SDS011;52765;52.258;21.052;2023-02-12T14:31:39;15.60;;;4.80;;
65996;SDS011;52765;52.258;21.052;2023-02-12T14:36:38;15.43;;;4.97;;
65996;SDS011;52765;52.258;21.052;2023-02-12T14:41:47;8.98;;;4.70;;
65996;SDS011;52765;52.258;21.052;2023-02-12T14:44:36;10.57;;;5.05;;
65996;SDS011;52765;52.258;21.052;2023-02-12T14:49:56;8.85;;;4.78;;
65996;SDS011;52765;52.258;21.052;2023-02-12T14:52:31;9.20;;;5.13;;
65996;SDS011;52765;52.258;21.052;2023-02-12T14:55:04;13.10;;;5.22;;
65996;SDS011;52765;52.258;21.052;2023-02-12T14:57:36;9.15;;;4.82;;
65996;SDS011;52765;52.258;21.052;2023-02-12T15:02:52;9.20;;;5.00;;
65996;SDS011;52765;52.258;21.052;2023-02-12T15:05:24;9.10;;;4.80;;
65996;SDS011;52765;52.258;21.052;2023-02-12T15:08:02;7.72;;;4.70;;
65996;SDS011;52765;52.258;21.052;2023-02-12T15:10:48;9.82;;;4.90;;
65996;SDS011;52765;52.258;21.052;2023-02-12T15:16:13;8.63;;;5.28;;
65996;SDS011;52765;52.258;21.052;2023-02-12T15:21:08;12.52;;;5.38;;
65996;SDS011;52765;52.258;21.052;2023-02-12T15:23:44;12.45;;;6.00;;
65996;SDS011;52765;52.258;21.052;2023-02-12T15:26:21;11.50;;;6.15;;
65996;SDS011;52765;52.258;21.052;2023-02-12T15:28:50;54.42;;;22.08;;
65996;SDS011;52765;52.258;21.052;2023-02-12T15:31:18;11.40;;;6.32;;
65996;SDS011;52765;52.258;21.052;2023-02-12T15:33:48;11.68;;;7.30;;
65996;SDS011;52765;52.258;21.052;2023-02-12T15:36:17;18.55;;;7.53;;
65996;SDS011;52765;52.258;21.052;2023-02-12T15:38:47;12.93;;;7.00;;
65996;SDS011;52765;52.258;21.052;2023-02-12T15:41:51;13.32;;;7.53;;
65996;SDS011;52765;52.258;21.052;2023-02-12T15:49:32;13.43;;;8.13;;
65996;SDS011;52765;52.258;21.052;2023-02-12T15:52:00;15.68;;;8.18;;
65996;SDS011;52765;52.258;21.052;2023-02-12T15:54:29;18.45;;;8.43;;
65996;SDS011;52765;52.258;21.052;2023-02-12T15:57:02;17.60;;;8.43;;
65996;SDS011;52765;52.258;21.052;2023-02-12T15:59:35;15.93;;;8.48;;
65996;SDS011;52765;52.258;21.052;2023-02-12T16:02:01;14.43;;;8.20;;
65996;SDS011;52765;52.258;21.052;2023-02-12T16:04:29;14.63;;;8.07;;
65996;SDS011;52765;52.258;21.052;2023-02-12T16:06:57;16.15;;;8.65;;
65996;SDS011;52765;52.258;21.052;2023-02-12T16:09:26;15.30;;;8.85;;
65996;SDS011;52765;52.258;21.052;2023-02-12T16:11:56;17.88;;;8.75;;
65996;SDS011;52765;52.258;21.052;2023-02-12T16:14:27;18.25;;;10.10;;
65996;SDS011;52765;52.258;21.052;2023-02-12T16:17:17;22.48;;;9.60;;
65996;SDS011;52765;52.258;21.052;2023-02-12T16:19:51;16.98;;;8.82;;
65996;SDS011;52765;52.258;21.052;2023-02-12T16:22:20;16.38;;;8.80;;
65996;SDS011;52765;52.258;21.052;2023-02-12T16:24:51;13.43;;;8.65;;
65996;SDS011;52765;52.258;21.052;2023-02-12T16:27:24;15.98;;;9.27;;
65996;SDS011;52765;52.258;21.052;2023-02-12T16:30:00;16.88;;;8.70;;
65996;SDS011;52765;52.258;21.052;2023-02-12T16:42:38;16.27;;;8.10;;
65996;SDS011;52765;52.258;21.052;2023-02-12T16:48:00;16.58;;;7.93;;
65996;SDS011;52765;52.258;21.052;2023-02-12T16:50:32;13.95;;;8.15;;
65996;SDS011;52765;52.258;21.052;2023-02-12T16:53:39;16.97;;;8.40;;
65996;SDS011;52765;52.258;21.052;2023-02-12T16:56:12;15.48;;;9.05;;
65996;SDS011;52765;52.258;21.052;2023-02-12T16:58:42;17.73;;;8.85;;
65996;SDS011;52765;52.258;21.052;2023-02-12T17:01:08;15.32;;;8.13;;
65996;SDS011;52765;52.258;21.052;2023-02-12T17:03:33;15.07;;;8.57;;
65996;SDS011;52765;52.258;21.052;2023-02-12T17:06:00;17.63;;;8.85;;
65996;SDS011;52765;52.258;21.052;2023-02-12T17:08:26;14.45;;;8.50;;
65996;SDS011;52765;52.258;21.052;2023-02-12T17:10:51;15.15;;;8.48;;
65996;SDS011;52765;52.258;21.052;2023-02-12T17:13:17;16.42;;;8.68;;
65996;SDS011;52765;52.258;21.052;2023-02-12T17:15:55;20.25;;;9.23;;
65996;SDS011;52765;52.258;21.052;2023-02-12T17:18:23;21.25;;;8.52;;
65996;SDS011;52765;52.258;21.052;2023-02-12T17:20:53;17.60;;;8.75;;
65996;SDS011;52765;52.258;21.052;2023-02-12T17:23:28;16.35;;;8.40;;
65996;SDS011;52765;52.258;21.052;2023-02-12T17:25:54;17.88;;;9.15;;
65996;SDS011;52765;52.258;21.052;2023-02-12T17:28:20;14.45;;;8.80;;
65996;SDS011;52765;52.258;21.052;2023-02-12T17:30:47;18.80;;;8.95;;
65996;SDS011;52765;52.258;21.052;2023-02-12T17:33:12;16.42;;;8.88;;
65996;SDS011;52765;52.258;21.052;2023-02-12T17:35:38;18.10;;;9.50;;
65996;SDS011;52765;52.258;21.052;2023-02-12T17:38:04;21.95;;;9.68;;
65996;SDS011;52765;52.258;21.052;2023-02-12T17:40:30;24.05;;;12.23;;
65996;SDS011;52765;52.258;21.052;2023-02-12T17:42:55;21.35;;;10.45;;
65996;SDS011;52765;52.258;21.052;2023-02-12T17:45:22;18.73;;;9.32;;
65996;SDS011;52765;52.258;21.052;2023-02-12T17:47:47;17.88;;;9.43;;
65996;SDS011;52765;52.258;21.052;2023-02-12T17:50:14;25.20;;;10.55;;
65996;SDS011;52765;52.258;21.052;2023-02-12T17:52:40;28.60;;;11.85;;
65996;SDS011;52765;52.258;21.052;2023-02-12T17:55:06;18.67;;;9.95;;
65996;SDS011;52765;52.258;21.052;2023-02-12T17:57:34;20.10;;;10.20;;
65996;SDS011;52765;52.258;21.052;2023-02-12T18:00:00;20.17;;;9.88;;
65996;SDS011;52765;52.258;21.052;2023-02-12T18:02:25;21.83;;;9.65;;
65996;SDS011;52765;52.258;21.052;2023-02-12T18:04:50;22.27;;;10.07;;
65996;SDS011;52765;52.258;21.052;2023-02-12T18:07:16;18.45;;;9.82;;
65996;SDS011;52765;52.258;21.052;2023-02-12T18:09:44;19.48;;;10.15;;
65996;SDS011;52765;52.258;21.052;2023-02-12T18:12:10;16.33;;;8.90;;